North Argyle, New York
Current Conditions -  °F | °C
As of 4:53 PM on Monday 22 Dec 2014 (Local Time) from KGFL Reporting Station
Overcast Overcast  
Wind Chill: 33°   Ceiling: 4400
Heat Index: 33°   Visibility: 9mi
Dew Point: 26°   Wind: 3mph
Humidity: 75%   Direction: 70°ENE
Pressure: 30.28"   Gusts: NA
Location:  43.2485°N, 73.457°W
Report Text: KGFL 222153Z AUTO 07003KT 9SM OVC044 01/M03 A3028 RMK AO2 SLP264 T00061033
Loading
Personal Weather Stations






























Interactive Weather Map New forecast layout! Learn more

10-Day Weather Forecast

Advertisements
Track Severe Weather on mobile